Latest Weather Observations for Karratha

IDW60801

Issued at 10:02 pm WST Wednesday 28 January 2015 (issued every 30 minutes, with the page automatically refreshed every 10 minutes)

About weather observations | Map of weather stations | Latest weather observations for WA | Other Formats
Station Details ID: 004083 Name: KARRATHA AERO Lat: -20.71 Lon: 116.77 Height: 5.3 m
Data from the previous 72 hours. | See also: Recent months at Karratha
Date/Time
WST
Temp
°C
App
Temp
°C
Dew
Point
Rel
Hum
%
Delta-T
°C
Wind Press
QNH
hPa
Press
MSL
hPa
Rain
since 9 am
mm
Dir
 
Spd
km/h
Gust
km/h
Spd
kts
Gust
kts
28/10:00pm 27.4 28.1 23.0 77 3.0 W 24 33 13 18 1005.6 1005.5 0.0
28/09:30pm 27.3 27.0 22.5 75 3.3 W 28 35 15 19 1005.4 1005.3 0.0
28/09:00pm 27.3 27.2 22.9 77 3.0 W 28 35 15 19 1005.3 1005.2 0.0
28/08:30pm 27.3 27.2 22.9 77 3.0 W 28 35 15 19 1005.1 1005.0 0.0
28/08:00pm 27.4 27.5 22.6 75 3.3 W 26 33 14 18 1004.9 1004.8 0.0
28/07:30pm 27.5 26.5 22.7 75 3.3 W 32 35 17 19 1004.4 1004.3 0.0
28/07:00pm 27.6 26.9 22.5 74 3.5 W 30 39 16 21 1004.3 1004.2 0.0
28/06:30pm 28.0 27.0 22.7 73 3.6 WNW 32 39 17 21 1004.2 1004.1 0.0
28/06:00pm 28.9 28.3 23.3 72 3.9 WNW 32 41 17 22 1004.1 1004.0 0.0
28/05:30pm 29.6 29.2 23.1 68 4.5 WNW 30 43 16 23 1003.9 1003.8 0.0
28/05:00pm 30.3 29.8 23.5 67 4.7 WNW 32 43 17 23 1003.7 1003.6 0.0
28/04:30pm 30.6 30.5 23.5 66 4.9 WNW 30 35 16 19 1003.7 1003.6 0.0
28/04:00pm 30.8 30.1 23.2 64 5.2 WNW 32 39 17 21 1003.9 1003.8 0.0
28/03:30pm 30.5 30.2 23.2 65 5.0 WNW 30 39 16 21 1004.0 1003.9 0.0
28/03:00pm 31.4 31.0 23.0 61 5.8 WNW 30 37 16 20 1004.1 1004.0 0.0
28/02:30pm 31.3 31.3 23.1 61 5.6 WNW 28 37 15 20 1004.3 1004.2 0.0
28/02:00pm 31.5 31.5 23.1 61 5.8 WNW 28 37 15 20 1004.5 1004.4 0.0
28/01:30pm 31.5 31.7 22.8 60 6.0 WNW 26 32 14 17 1004.8 1004.7 0.0
28/01:00pm 31.7 32.1 22.4 58 6.4 WNW 24 30 13 16 1004.9 1004.8 0.0
28/12:30pm 31.9 32.7 21.7 54 6.9 WNW 20 28 11 15 1005.1 1005.0 0.0
28/12:00pm 32.2 33.0 21.7 54 7.1 WNW 20 26 11 14 1005.5 1005.4 0.0
28/11:30am 31.7 32.6 22.7 59 6.2 WNW 22 28 12 15 1005.9 1005.8 0.0
28/11:00am 31.2 32.7 23.0 61 5.6 WNW 20 28 11 15 1006.2 1006.1 0.0
28/10:30am 30.4 32.1 22.3 62 5.5 WNW 17 22 9 12 1006.6 1006.5 0.0
28/10:00am 29.9 31.7 22.6 65 5.0 W 17 22 9 12 1006.9 1006.8 0.0
28/09:30am 29.9 32.0 23.1 67 4.7 W 17 22 9 12 1007.1 1007.0 0.0
28/09:00am 29.3 31.2 22.8 68 4.4 WSW 17 24 9 13 1007.3 1007.2 0.0
28/08:30am 28.6 30.2 22.8 71 3.9 WSW 19 24 10 13 1007.0 1006.9 0.0
28/08:00am 27.7 29.2 23.1 76 3.1 WSW 20 26 11 14 1006.8 1006.7 0.0
28/07:30am 27.1 28.4 22.7 77 3.0 WSW 20 28 11 15 1006.6 1006.5 0.0
28/07:00am 26.4 27.9 22.7 80 2.5 SW 19 22 10 12 1006.4 1006.3 0.0
28/06:30am 25.9 28.3 23.0 84 2.0 WSW 15 19 8 10 1006.0 1005.9 0.0
28/06:00am 25.6 28.3 22.9 85 1.8 SW 13 17 7 9 1005.5 1005.4 0.0
28/05:30am 26.3 28.3 23.0 82 2.2 WSW 17 22 9 12 1005.0 1004.9 0.0
28/05:00am 26.2 28.3 23.1 83 2.1 WSW 17 20 9 11 1004.9 1004.8 0.0
28/04:30am 26.2 28.2 22.9 82 2.2 WSW 17 20 9 11 1004.9 1004.8 0.0
28/04:00am 26.1 28.6 23.2 84 2.0 WSW 15 20 8 11 1005.0 1004.9 0.0
28/03:30am 26.3 28.6 23.4 84 2.0 WSW 17 22 9 12 1004.8 1004.7 0.0
28/03:00am 26.3 28.6 23.4 84 2.0 WSW 17 19 9 10 1004.8 1004.7 0.0
28/02:30am 26.4 28.5 23.1 82 2.2 WSW 17 20 9 11 1004.8 1004.7 0.0
28/02:00am 26.6 28.3 23.1 81 2.4 WSW 19 28 10 15 1004.8 1004.7 0.0
28/01:30am 27.0 27.6 22.8 78 2.8 W 24 32 13 17 1005.0 1004.9 0.0
28/01:00am 27.0 28.0 22.8 78 2.9 W 22 26 12 14 1005.2 1005.1 0.0
28/12:30am 27.0 27.4 22.4 76 3.1 W 24 30 13 16 1005.7 1005.6 0.0
28/12:00am 27.1 28.0 22.7 77 3.0 W 22 30 12 16 1006.0 1005.9 0.0
 
Date/Time
WST
Temp
°C
App
Temp
°C
Dew
Point
Rel
Hum
%
Delta-T
°C
Wind Press
QNH
hPa
Press
MSL
hPa
Rain
since 9 am
mm
Dir
 
Spd
km/h
Gust
km/h
Spd
kts
Gust
kts
27/11:30pm 27.0 28.4 22.8 78 2.8 WSW 20 26 11 14 1006.1 1006.0 0.0
27/11:00pm 27.0 27.5 22.6 77 3.0 W 24 30 13 16 1006.1 1006.0 0.0
27/10:30pm 27.0 27.6 22.8 78 2.8 W 24 32 13 17 1006.1 1006.0 0.0
27/10:00pm 27.1 27.0 22.3 75 3.2 W 26 32 14 17 1006.0 1005.9 0.0
27/09:30pm 27.3 26.9 22.3 74 3.4 W 28 35 15 19 1005.9 1005.8 0.0
27/09:00pm 27.5 27.3 22.7 75 3.3 W 28 35 15 19 1005.7 1005.6 0.0
27/08:30pm 27.4 27.6 22.8 76 3.1 W 26 32 14 17 1005.6 1005.5 0.0
27/08:00pm 27.7 27.7 23.1 76 3.1 W 28 35 15 19 1005.4 1005.3 0.0
27/07:30pm 27.6 27.4 22.8 75 3.3 W 28 35 15 19 1005.0 1004.9 0.0
27/07:00pm 27.8 27.1 22.5 73 3.6 W 30 39 16 21 1004.9 1004.8 0.0
27/06:30pm 28.5 27.8 22.5 70 4.1 WNW 30 41 16 22 1004.8 1004.7 0.0
27/06:00pm 28.9 27.8 21.7 65 4.8 WNW 30 35 16 19 1004.6 1004.5 0.0
27/05:30pm 29.3 28.6 21.8 64 5.0 WNW 28 37 15 20 1004.5 1004.4 0.0
27/05:00pm 30.1 29.0 21.7 60 5.7 WNW 30 39 16 21 1004.3 1004.2 0.0
27/04:30pm 30.6 30.0 21.9 59 5.9 WNW 28 35 15 19 1004.3 1004.2 0.0
27/04:00pm 31.0 31.1 22.6 61 5.8 WNW 26 35 14 19 1004.3 1004.2 0.0
27/03:30pm 31.1 30.9 22.1 58 6.1 WNW 26 35 14 19 1004.6 1004.5 0.0
27/03:00pm 31.1 31.2 21.9 58 6.2 WNW 24 32 13 17 1004.8 1004.7 0.0
27/02:30pm 31.3 31.8 21.2 55 6.8 WNW 20 28 11 15 1004.9 1004.8 0.0
27/02:00pm 31.3 32.1 21.8 57 6.4 WNW 20 33 11 18 1005.1 1005.0 0.0
27/01:30pm 31.2 32.0 21.4 56 6.6 WNW 19 26 10 14 1005.5 1005.4 0.0
27/01:00pm 31.3 32.1 21.8 57 6.4 WNW 20 28 11 15 1005.7 1005.6 0.0
27/12:30pm 30.8 31.9 21.9 59 6.0 NW 19 28 10 15 1006.1 1006.0 0.0
27/12:00pm 31.2 32.5 21.7 57 6.4 NW 17 24 9 13 1006.5 1006.4 0.0
27/11:30am 31.2 33.0 21.9 57 6.3 WNW 15 24 8 13 1007.0 1006.9 0.0
27/11:00am 30.2 32.3 22.4 63 5.3 NW 15 22 8 12 1007.4 1007.3 0.0
27/10:30am 29.8 32.3 22.5 65 5.0 NW 13 22 7 12 1007.7 1007.6 0.0
27/10:00am 29.4 32.0 22.6 67 4.6 WNW 13 20 7 11 1007.8 1007.7 0.0
27/09:30am 29.0 31.4 23.0 70 4.1 WNW 15 20 8 11 1007.8 1007.7 0.0
27/09:00am 28.3 31.6 22.5 71 3.9 WNW 9 15 5 8 1007.9 1007.8 0.0
27/08:30am 27.9 31.6 22.6 73 3.6 WSW 7 13 4 7 1007.9 1007.8 0.0
27/08:00am 27.9 30.5 22.6 73 3.6 W 13 19 7 10 1007.6 1007.5 0.0
27/07:30am 27.6 30.0 22.3 73 3.6 W 13 17 7 9 1007.3 1007.2 0.0
27/07:00am 27.6 29.7 22.5 74 3.5 W 15 19 8 10 1007.0 1006.9 0.0
27/06:30am 27.1 29.6 22.5 76 3.1 WNW 13 19 7 10 1006.7 1006.6 0.0
27/06:00am 27.0 28.8 22.6 77 3.0 WNW 17 20 9 11 1006.6 1006.5 0.0
27/05:30am 27.0 28.8 22.6 77 3.0 WNW 17 20 9 11 1006.2 1006.1 0.0
27/05:00am 27.1 29.2 22.5 76 3.1 WNW 15 20 8 11 1006.1 1006.0 0.0
27/04:30am 27.1 29.0 22.7 77 3.0 WNW 17 20 9 11 1006.0 1005.9 0.0
27/04:00am 27.0 28.8 22.6 77 3.0 WNW 17 24 9 13 1006.1 1006.0 0.0
27/03:30am 27.0 28.4 22.8 78 2.8 WNW 20 26 11 14 1005.8 1005.7 0.0
27/03:00am 27.0 28.1 23.0 79 2.7 WNW 22 28 12 15 1005.6 1005.5 0.0
27/02:30am 27.1 28.6 23.1 79 2.7 WNW 20 28 11 15 1005.7 1005.6 0.0
27/02:00am 27.2 28.8 23.2 79 2.7 WNW 20 30 11 16 1005.7 1005.6 0.0
27/01:30am 27.1 28.8 23.1 79 2.7 WNW 19 26 10 14 1005.8 1005.7 0.0
27/01:00am 27.1 28.5 22.9 78 2.9 WNW 20 26 11 14 1006.0 1005.9 0.0
27/12:30am 27.2 27.7 22.6 76 3.1 W 24 32 13 17 1005.9 1005.8 0.0
27/12:00am 27.5 29.0 23.1 77 3.0 WNW 20 26 11 14 1006.2 1006.1 0.0
 
Date/Time
WST
Temp
°C
App
Temp
°C
Dew
Point
Rel
Hum
%
Delta-T
°C
Wind Press
QNH
hPa
Press
MSL
hPa
Rain
since 9 am
mm
Dir
 
Spd
km/h
Gust
km/h
Spd
kts
Gust
kts
26/11:30pm 27.4 29.0 23.2 78 2.9 WNW 20 26 11 14 1006.4 1006.3 0.0
26/11:00pm 27.6 29.0 23.6 79 2.8 WNW 22 30 12 16 1006.3 1006.2 0.0
26/10:30pm 27.7 29.2 23.7 79 2.7 WNW 22 28 12 15 1006.3 1006.2 0.0
26/10:00pm 27.7 29.7 23.9 80 2.6 W 20 30 11 16 1006.2 1006.1 0.0
26/09:30pm 27.8 29.7 23.8 79 2.8 WNW 20 26 11 14 1006.0 1005.9 0.0
26/09:00pm 27.8 29.7 23.8 79 2.8 WNW 20 26 11 14 1005.9 1005.8 0.0
26/08:30pm 28.0 30.1 23.8 78 2.9 WNW 19 24 10 13 1005.6 1005.5 0.0
26/08:00pm 28.0 29.8 23.6 77 3.0 WNW 20 24 11 13 1005.6 1005.5 0.0
26/07:30pm 28.3 29.9 23.9 77 3.0 WNW 22 28 12 15 1005.4 1005.3 0.0
26/07:00pm 28.5 29.7 23.9 76 3.2 WNW 24 30 13 16 1005.2 1005.1 0.0
26/06:30pm 28.9 30.7 23.6 73 3.6 NW 20 30 11 16 1005.2 1005.1 0.0
26/06:00pm 29.5 31.2 23.4 69 4.2 NW 20 28 11 15 1005.1 1005.0 0.0
26/05:30pm 30.2 31.5 23.4 67 4.7 NW 22 30 12 16 1005.0 1004.9 0.0
26/05:00pm 30.2 31.8 23.9 69 4.4 NNW 22 35 12 19 1005.0 1004.9 0.0
26/04:30pm 30.7 32.7 23.9 67 4.7 NNW 20 28 11 15 1004.9 1004.8 0.0
26/04:00pm 30.8 32.6 23.5 65 5.1 NNW 20 30 11 16 1004.8 1004.7 0.0
26/03:30pm 31.1 33.0 23.7 64 5.1 NNW 20 28 11 15 1005.0 1004.9 0.0
26/03:00pm 31.4 33.3 23.8 64 5.3 NNW 20 26 11 14 1005.2 1005.1 0.0
26/02:30pm 31.2 32.9 24.1 66 4.9 NNW 22 30 12 16 1005.2 1005.1 0.0
26/02:00pm 31.2 32.5 23.3 63 5.5 NNW 22 32 12 17 1005.5 1005.4 0.0
26/01:30pm 31.6 33.3 23.4 61 5.7 NNW 20 28 11 15 1005.5 1005.4 0.0
26/01:00pm 31.9 33.8 23.7 62 5.7 N 20 32 11 17 1005.9 1005.8 0.0
26/12:30pm 31.8 33.8 23.6 62 5.7 N 19 26 10 14 1006.1 1006.0 0.0
26/12:00pm 31.0 33.5 23.1 63 5.4 N 15 22 8 12 1006.4 1006.3 0.0
26/11:30am 31.0 32.7 23.1 63 5.4 NE 19 28 10 15 1006.8 1006.7 0.0
26/11:00am 31.9 33.6 23.4 60 5.9 NE 20 32 11 17 1007.1 1007.0 0.0
26/10:30am 31.8 33.8 23.6 62 5.7 NNE 19 24 10 13 1007.4 1007.3 0.0
26/10:00am 30.5 32.6 23.7 67 4.7 NNE 19 24 10 13 1007.4 1007.3 0.0
26/09:30am 30.3 32.9 24.0 69 4.4 NNE 17 24 9 13 1007.6 1007.5 0.0
26/09:00am 29.6 32.2 24.0 72 3.9 NNE 17 24 9 13 1007.6 1007.5 0.0
26/08:30am 28.6 32.6 25.0 81 2.5 NNE 13 17 7 9 1007.6 1007.5 0.0
26/08:00am 28.3 32.0 24.5 80 2.6 ENE 13 15 7 8 1007.7 1007.6 0.0
26/07:30am 28.0 32.5 24.6 82 2.4 E 9 13 5 7 1007.4 1007.3 0.0
26/07:00am 27.8 32.3 24.6 83 2.2 E 9 15 5 8 1007.5 1007.4 0.0
26/06:30am 27.5 31.8 24.3 83 2.2 ENE 9 13 5 7 1007.2 1007.1 0.0
26/06:00am 27.2 33.1 24.1 83 2.1 CALM 0 4 0 2 1006.8 1006.7 0.0
26/05:30am 27.2 31.0 24.1 83 2.1 WNW 11 13 6 7 1005.7 1005.6 0.0
26/05:07am 27.2 30.8 24.3 84 2.0 WNW 13 17 7 9 1005.5 1005.4 0.0
26/05:00am 27.1 30.2 24.2 84 2.0 WNW 15 19 8 10 1005.2 1005.1 0.0
26/04:55am 27.1 30.0 24.4 85 1.9 WNW 17 20 9 11 1005.0 1004.9 0.0
26/04:54am 27.1 30.0 24.4 85 1.9 WNW 17 20 9 11 1005.0 1004.9 0.0
26/04:30am 27.2 30.5 24.5 85 1.9 WNW 15 20 8 11 1004.9 1004.8 0.0
26/04:00am 27.2 30.5 24.5 85 1.9 WNW 15 20 8 11 1004.9 1004.8 0.0
26/03:30am 27.3 30.3 24.6 85 1.9 W 17 24 9 13 1004.9 1004.8 0.0
26/03:20am 27.3 30.3 24.6 85 1.9 WNW 17 20 9 11 1004.8 1004.7 0.0
26/03:00am 27.4 30.7 24.5 84 2.0 W 15 17 8 9 1004.9 1004.8 0.0
26/02:34am 27.4 30.7 24.5 84 2.0 W 15 19 8 10 1005.2 1005.1 0.0
26/02:30am 27.5 31.3 24.7 85 1.9 W 13 19 7 10 1005.2 1005.1 0.0
26/02:00am 27.4 30.3 24.5 84 2.0 W 17 20 9 11 1005.3 1005.2 0.0
26/01:43am 27.2 30.5 24.5 85 1.9 WNW 15 20 8 11 1005.4 1005.3 0.0
26/01:41am 27.2 30.1 24.5 85 1.9 WNW 17 20 9 11 1005.4 1005.3 0.0
26/01:30am 27.3 29.8 24.4 84 2.0 WNW 19 24 10 13 1005.5 1005.4 0.0
26/01:22am 27.3 30.0 24.7 86 1.8 WNW 19 24 10 13 1005.4 1005.3 0.0
26/01:00am 27.3 30.0 24.7 86 1.8 WNW 19 26 10 14 1005.5 1005.4 0.0
26/12:30am 27.4 30.1 25.0 87 1.7 NW 20 30 11 16 1005.4 1005.3 0.0
26/12:00am 27.6 29.4 24.8 85 2.0 NW 24 33 13 18 1005.1 1005.0 0.0
 
Date/Time
WST
Temp
°C
App
Temp
°C
Dew
Point
Rel
Hum
%
Delta-T
°C
Wind Press
QNH
hPa
Press
MSL
hPa
Rain
since 9 am
mm
Dir
 
Spd
km/h
Gust
km/h
Spd
kts
Gust
kts
25/11:30pm 28.0 30.5 24.8 83 2.2 NW 20 26 11 14 1005.4 1005.3 0.0
25/11:00pm 28.1 30.7 24.9 83 2.2 NW 20 30 11 16 1005.7 1005.6 0.0
25/10:30pm 28.2 30.6 25.2 84 2.1 NNW 22 28 12 15 1005.7 1005.6 0.0

Other Formats:

Comma delimited format used in spreadsheet applications
http://www.bom.gov.au/fwo/IDW60801/IDW60801.95307.axf

JavaScript Object Notation format (JSON) in row-major order
http://www.bom.gov.au/fwo/IDW60801/IDW60801.95307.json